Hlavní strana
METAR-TAF:

METAR-TAF

Letiště :

Springfield-Beckley Municipal Airport

Springfield, Ohio, Spojené státy americké

zeměpisná šířka: 39-50N, zeměpisná délka: 083-50W, výška: 321 m

Aktuální stav počasí

Zpráva byla vytvořena před 1 hodinou a 0 minutami, v 07:56 UTC
Východoseverovýchodní vítr 14 kt
Teplota -1°C
Vlhkost vzduchu 93%
Tlak 1023 hPa
Viditelnost: 8.0 km
Oblačno až skoro zataženo ve výšce 4800 ft
Zataženo ve výšce 7000 ft
slabé sněžení, kouřmo

METAR: KSGH 150756Z AUTO 07014KT 5SM -SN BR BKN048 OVC070 M01/M02 A3020 RMK AO2 SLP242 P0000 T10111022 FZRANO $

Čas: 03:56 (08:56 UTC)


TAF: chybějící

Stav a předpovědi počasí z více než 4 000 letišť (zprávy METAR a TAF).

Červené a žluté tečky na mapě představují dostupné meteorologické stanice.

Když kurzor umístíte na tečku, zobrazí se název stanice.

Pak kliknutím zobrazíte stav a předpověď počasí.

Chcete-li změnit mapu, kliknutím na zelené tlačítko se znaménkem +mapu přiblížíte, kliknutím na zelené tlačítko se znaménkem – mapu oddálíte a kliknutím na zelené šipky přejdete na sousední mapy.


METAR-TAF: